Overview Statistics Trail Chart Weather Telemetry Raw packets
 

This is the latest recevied packets stored in our database for station/object DL1YAU-2. If no packets are shown the sender has not sent any packets the latest 24 hours.

If you compare the raw packets with similar data from other websites it may differ (especially the path), the reason is that we are not collecting packets from the same APRS-IS servers. Each APRS-IS server performes duplicate filtering, and which packet that is considered to be a duplicate may differ depending on which APRS-IS server you receive your data from.

<< 1 2 3 4 >>

1788664249: DL1YAU-2>APRSGW,TCPIP*,qAR,DL1YAU-2:T#312,993.6,14.2,60.4,1028.3,0.0,00000000

1788664249: DL1YAU-2>APRSGW,TCPIP*,qAR,DL1YAU-2:!5143.10N/00856.26E-DL1YAU-2-JO41LR-N05#Meinhard/B=100/A=000948

1788662434: DL1YAU-2>APRSGW,TCPIP*,qAR,DL1YAU-2::DL1YAU-2 :UNIT.hPa,C deg,%,hPa,C deg,Y/N,O/N,O/N,O/N,O/N,O/N,O/N,O/N

1788662434: DL1YAU-2>APRSGW,TCPIP*,qAR,DL1YAU-2::DL1YAU-2 :EQNS.0,1,0,0,1,0,0,1,0,0,1,0,0,1,0

1788662434: DL1YAU-2>APRSGW,TCPIP*,qAR,DL1YAU-2::DL1YAU-2 :PARM.Press,Temp.in,Hum,QNH,Temp.out,track,-,-,-,-,-,-,-

1788662434: DL1YAU-2>APRSGW,TCPIP*,qAR,DL1YAU-2:T#311,993.5,14.4,60.3,1028.1,0.0,00000000

1788662434: DL1YAU-2>APRSGW,TCPIP*,qAR,DL1YAU-2:!5143.10N/00856.26E-DL1YAU-2-JO41LR-N05#Meinhard/B=100/A=000948

1788660619: DL1YAU-2>APRSGW,TCPIP*,qAR,DL1YAU-2:!5143.10N/00856.26E-DL1YAU-2-JO41LR-N05#Meinhard/B=100/A=000948

1788660618: DL1YAU-2>APRSGW,TCPIP*,qAR,DL1YAU-2:T#310,993.6,14.6,59.9,1028.2,0.0,00000000

1788658803: DL1YAU-2>APRSGW,TCPIP*,qAR,DL1YAU-2:T#309,993.5,14.9,59.6,1028.1,0.0,00000000

1788658803: DL1YAU-2>APRSGW,TCPIP*,qAR,DL1YAU-2:!5143.10N/00856.26E-DL1YAU-2-JO41LR-N05#Meinhard/B=100/A=000948

1788656988: DL1YAU-2>APRSGW,TCPIP*,qAR,DL1YAU-2:T#308,993.2,15.2,59.2,1027.8,0.0,00000000

1788656988: DL1YAU-2>APRSGW,TCPIP*,qAR,DL1YAU-2:!5143.10N/00856.26E-DL1YAU-2-JO41LR-N05#Meinhard/B=100/A=000948

1788655173: DL1YAU-2>APRSGW,TCPIP*,qAR,DL1YAU-2:T#307,993.2,15.5,58.8,1027.7,0.0,00000000

1788655173: DL1YAU-2>APRSGW,TCPIP*,qAR,DL1YAU-2:!5143.10N/00856.26E-DL1YAU-2-JO41LR-N05#Meinhard/B=100/A=000948

1788653358: DL1YAU-2>APRSGW,TCPIP*,qAR,DL1YAU-2:T#306,993.2,15.9,58.5,1027.7,0.0,00000000

1788653358: DL1YAU-2>APRSGW,TCPIP*,qAR,DL1YAU-2:!5143.10N/00856.26E-DL1YAU-2-JO41LR-N05#Meinhard/B=100/A=000948

1788651543: DL1YAU-2>APRSGW,TCPIP*,qAR,DL1YAU-2:T#305,993.2,16.1,58.1,1027.6,0.0,00000000

1788651543: DL1YAU-2>APRSGW,TCPIP*,qAR,DL1YAU-2:!5143.10N/00856.26E-DL1YAU-2-JO41LR-N05#Meinhard/B=100/A=000948

1788649728: DL1YAU-2>APRSGW,TCPIP*,qAR,DL1YAU-2:T#304,992.9,16.4,57.7,1027.3,0.0,00000000

1788649728: DL1YAU-2>APRSGW,TCPIP*,qAR,DL1YAU-2:!5143.10N/00856.26E-DL1YAU-2-JO41LR-N05#Meinhard/B=100/A=000948

1788647913: DL1YAU-2>APRSGW,TCPIP*,qAR,DL1YAU-2:!5143.10N/00856.26E-DL1YAU-2-JO41LR-N05#Meinhard/B=100/A=000948

1788647913: DL1YAU-2>APRSGW,TCPIP*,qAR,DL1YAU-2:T#303,992.6,16.7,57.2,1027.0,0.0,00000000

1788646098: DL1YAU-2>APRSGW,TCPIP*,qAR,DL1YAU-2:T#302,992.4,16.9,56.8,1026.8,0.0,00000000

1788646098: DL1YAU-2>APRSGW,TCPIP*,qAR,DL1YAU-2:!5143.10N/00856.26E-DL1YAU-2-JO41LR-N05#Meinhard/B=100/A=000948